Airport ICAO


07:25 UTC

9°C

Mist


An affordable passengers' Moving Map for your aircraft. Made for the iPad and the iPhone
More information here

LFLN


Saint Yan FRANCE   IFR CAT I


METAR LFLN 200700Z AUTO VRB03KT 2000 1300 R33/2000D BR VV/// 09/09 Q1024 BECMG 9999 NSW OVC003 0h25min

TAF LFLN 200500Z 2006/2015 VRB02KT 9999 OVC003 TEMPO 2006/2008 3000 BR PROB30 TEMPO 2006/2008 0500 FG VV/// BECMG 2009/2012 CAVOK 2h25min





NOTAMS

OPEN